ENY3793 KICT-KDFW
Flight info
| Callsign | ENY3793 |
|---|---|
| Flight time | N/A |
| Altitude | 30000 |
| Route | JAMEY PER IBAKE VKTRY2 |
| Aircraft | E75L/M-SDE3GILORVW/S |
Departure
| Time | 2026-04-19 22:38 |
|---|---|
| Airport | Wichita Dwight D. Eisenhower National Airport (KICT) |
Arrival
| Time | N/A |
|---|---|
| Airport | Dallas Fort Worth International Airport (KDFW) |
| Time | Latitude | Longitude | Altitude | Speed | Heading |
|---|---|---|---|---|---|
| 2026-04-19 22:21 | 37.65375 | -97.43328 | 1328 ft | 0 kts | 70° |
| 2026-04-19 22:23 | 37.65375 | -97.43329 | 1328 ft | 0 kts | 70° |
| 2026-04-19 22:28 | 37.65375 | -97.43330 | 1328 ft | 0 kts | 70° |
| 2026-04-19 22:29 | 37.65374 | -97.43330 | 1328 ft | 0 kts | 70° |
| 2026-04-19 22:34 | 37.65374 | -97.43326 | 1328 ft | 1 kts | 106° |
| 2026-04-19 22:34 | 37.65352 | -97.43322 | 1329 ft | 5 kts | 203° |
| 2026-04-19 22:34 | 37.65329 | -97.43377 | 1328 ft | 10 kts | 285° |
| 2026-04-19 22:34 | 37.65387 | -97.43439 | 1328 ft | 12 kts | 328° |
| 2026-04-19 22:35 | 37.65464 | -97.43498 | 1330 ft | 13 kts | 330° |
| 2026-04-19 22:35 | 37.65557 | -97.43514 | 1328 ft | 15 kts | 21° |
| 2026-04-19 22:35 | 37.65661 | -97.43466 | 1326 ft | 18 kts | 19° |
| 2026-04-19 22:35 | 37.65784 | -97.43410 | 1326 ft | 19 kts | 20° |
| 2026-04-19 22:36 | 37.65909 | -97.43352 | 1329 ft | 19 kts | 20° |
| 2026-04-19 22:36 | 37.66030 | -97.43297 | 1330 ft | 16 kts | 20° |
| 2026-04-19 22:36 | 37.66099 | -97.43281 | 1332 ft | 7 kts | 347° |
| 2026-04-19 22:36 | 37.66107 | -97.43284 | 1336 ft | 0 kts | 336° |
| 2026-04-19 22:37 | 37.66131 | -97.43316 | 1337 ft | 12 kts | 294° |
| 2026-04-19 22:38 | 37.66074 | -97.43427 | 1332 ft | 24 kts | 201° |
| 2026-04-19 22:38 | 37.65720 | -97.43588 | 1330 ft | 91 kts | 199° |
| 2026-04-19 22:38 | 37.64897 | -97.43964 | 1389 ft | 153 kts | 200° |
| 2026-04-19 22:38 | 37.63853 | -97.44418 | 2174 ft | 165 kts | 199° |
| 2026-04-19 22:39 | 37.62640 | -97.44698 | 2874 ft | 194 kts | 183° |
| 2026-04-19 22:39 | 37.61265 | -97.44526 | 3853 ft | 206 kts | 175° |
| 2026-04-19 22:39 | 37.59946 | -97.44314 | 4847 ft | 220 kts | 176° |
| 2026-04-19 22:39 | 37.58280 | -97.44055 | 5367 ft | 263 kts | 175° |
| 2026-04-19 22:40 | 37.56509 | -97.43751 | 6983 ft | 254 kts | 176° |
| 2026-04-19 22:40 | 37.54710 | -97.43457 | 8208 ft | 264 kts | 177° |
| 2026-04-19 22:40 | 37.52851 | -97.43156 | 9388 ft | 275 kts | 177° |
| 2026-04-19 22:40 | 37.50939 | -97.42833 | 10596 ft | 282 kts | 176° |
| 2026-04-19 22:41 | 37.48969 | -97.42501 | 11655 ft | 290 kts | 178° |
| 2026-04-19 22:41 | 37.46949 | -97.42168 | 12754 ft | 297 kts | 178° |
| 2026-04-19 22:41 | 37.44825 | -97.41824 | 13291 ft | 326 kts | 178° |
| 2026-04-19 22:41 | 37.42460 | -97.41439 | 13576 ft | 359 kts | 178° |
| 2026-04-19 22:42 | 37.39919 | -97.41002 | 14336 ft | 373 kts | 177° |
| 2026-04-19 22:42 | 37.37327 | -97.40562 | 15361 ft | 378 kts | 178° |
| 2026-04-19 22:42 | 37.34706 | -97.40119 | 16395 ft | 383 kts | 178° |
| 2026-04-19 22:42 | 37.32048 | -97.39678 | 17396 ft | 388 kts | 178° |
| 2026-04-19 22:43 | 37.29360 | -97.39123 | 18268 ft | 399 kts | 170° |
| 2026-04-19 22:43 | 37.26687 | -97.38065 | 19065 ft | 407 kts | 165° |
| 2026-04-19 22:43 | 37.23991 | -97.36892 | 19649 ft | 413 kts | 166° |
| 2026-04-19 22:43 | 37.21252 | -97.35719 | 20271 ft | 418 kts | 166° |
| 2026-04-19 22:44 | 37.18472 | -97.34534 | 20815 ft | 425 kts | 166° |
| 2026-04-19 22:44 | 37.15654 | -97.33335 | 21401 ft | 430 kts | 166° |
| 2026-04-19 22:44 | 37.12799 | -97.32123 | 21944 ft | 436 kts | 166° |
| 2026-04-19 22:44 | 37.09913 | -97.30901 | 22503 ft | 440 kts | 166° |
| 2026-04-19 22:45 | 37.06992 | -97.29665 | 22955 ft | 447 kts | 166° |
| 2026-04-19 22:45 | 37.04035 | -97.28416 | 23503 ft | 451 kts | 166° |
| 2026-04-19 22:45 | 37.01047 | -97.27154 | 23968 ft | 455 kts | 166° |
| 2026-04-19 22:45 | 36.98042 | -97.25884 | 24470 ft | 457 kts | 167° |
| 2026-04-19 22:46 | 36.95015 | -97.24609 | 24970 ft | 460 kts | 167° |
| 2026-04-19 22:46 | 36.91969 | -97.23326 | 25454 ft | 464 kts | 167° |
| 2026-04-19 22:46 | 36.88904 | -97.22038 | 26002 ft | 464 kts | 167° |
| 2026-04-19 22:46 | 36.85850 | -97.20751 | 26679 ft | 462 kts | 167° |
| 2026-04-19 22:47 | 36.82850 | -97.19490 | 27283 ft | 461 kts | 167° |
| 2026-04-19 22:47 | 36.79810 | -97.18217 | 27877 ft | 460 kts | 167° |
| 2026-04-19 22:47 | 36.76775 | -97.16941 | 28420 ft | 459 kts | 167° |
| 2026-04-19 22:47 | 36.73711 | -97.16116 | 28939 ft | 443 kts | 186° |
| 2026-04-19 22:48 | 36.70738 | -97.16519 | 29542 ft | 423 kts | 200° |
| 2026-04-19 22:48 | 36.67844 | -97.17232 | 30077 ft | 424 kts | 199° |
| 2026-04-19 22:48 | 36.64920 | -97.17888 | 30239 ft | 429 kts | 199° |
| 2026-04-19 22:49 | 36.59047 | -97.19141 | 30253 ft | 427 kts | 198° |
| 2026-04-19 22:49 | 36.53185 | -97.20354 | 30254 ft | 427 kts | 198° |
| 2026-04-19 22:50 | 36.47349 | -97.21544 | 30265 ft | 425 kts | 198° |
| 2026-04-19 22:50 | 36.41513 | -97.22722 | 30278 ft | 425 kts | 198° |
| 2026-04-19 22:51 | 36.35679 | -97.23896 | 30272 ft | 425 kts | 198° |
| 2026-04-19 22:51 | 36.26930 | -97.25647 | 30267 ft | 422 kts | 198° |
| 2026-04-19 22:52 | 36.21123 | -97.26805 | 30269 ft | 423 kts | 198° |
| 2026-04-19 22:52 | 36.15317 | -97.27964 | 30268 ft | 423 kts | 198° |
| 2026-04-19 22:53 | 36.09547 | -97.29112 | 30272 ft | 423 kts | 198° |
| 2026-04-19 22:53 | 36.03737 | -97.30268 | 30267 ft | 423 kts | 198° |
| 2026-04-19 22:54 | 35.97951 | -97.31414 | 30270 ft | 420 kts | 198° |
| 2026-04-19 22:54 | 35.92176 | -97.32560 | 30275 ft | 421 kts | 198° |
| 2026-04-19 22:55 | 35.86399 | -97.33703 | 30272 ft | 420 kts | 198° |
| 2026-04-19 22:55 | 35.80622 | -97.34845 | 30268 ft | 421 kts | 198° |
| 2026-04-19 22:56 | 35.74847 | -97.35981 | 30268 ft | 420 kts | 198° |
| 2026-04-19 22:56 | 35.69072 | -97.37120 | 30272 ft | 420 kts | 198° |
| 2026-04-19 22:57 | 35.63295 | -97.38258 | 30277 ft | 420 kts | 198° |
| 2026-04-19 22:57 | 35.57516 | -97.39394 | 30278 ft | 420 kts | 198° |
| 2026-04-19 22:58 | 35.51743 | -97.40524 | 30272 ft | 418 kts | 197° |
| 2026-04-19 22:58 | 35.46001 | -97.41647 | 30279 ft | 418 kts | 197° |
| 2026-04-19 22:59 | 35.40261 | -97.42770 | 30277 ft | 418 kts | 197° |
| 2026-04-19 22:59 | 35.34558 | -97.43884 | 30277 ft | 418 kts | 197° |
| 2026-04-19 23:00 | 35.28815 | -97.45005 | 30286 ft | 418 kts | 197° |
| 2026-04-19 23:00 | 35.23087 | -97.46118 | 30287 ft | 416 kts | 197° |
| 2026-04-19 23:01 | 35.17374 | -97.47230 | 30288 ft | 416 kts | 197° |
| 2026-04-19 23:01 | 35.11662 | -97.48340 | 30301 ft | 416 kts | 197° |
| 2026-04-19 23:02 | 35.05947 | -97.49449 | 30304 ft | 416 kts | 197° |
| 2026-04-19 23:02 | 35.00202 | -97.50408 | 30306 ft | 419 kts | 192° |
| 2026-04-19 23:03 | 34.94368 | -97.50880 | 30299 ft | 420 kts | 192° |
| 2026-04-19 23:03 | 34.88533 | -97.51376 | 30308 ft | 420 kts | 192° |
| 2026-04-19 23:04 | 34.82703 | -97.51877 | 30304 ft | 420 kts | 192° |
| 2026-04-19 23:04 | 34.76875 | -97.52384 | 30311 ft | 420 kts | 192° |
| 2026-04-19 23:05 | 34.71066 | -97.52889 | 30309 ft | 418 kts | 192° |
| 2026-04-19 23:05 | 34.65257 | -97.53398 | 30316 ft | 418 kts | 192° |
| 2026-04-19 23:06 | 34.59450 | -97.53904 | 30314 ft | 419 kts | 192° |
| 2026-04-19 23:06 | 34.53682 | -97.54405 | 30316 ft | 418 kts | 192° |
| 2026-04-19 23:07 | 34.47879 | -97.54909 | 30312 ft | 417 kts | 193° |
| 2026-04-19 23:07 | 34.42083 | -97.55413 | 30316 ft | 417 kts | 193° |
| 2026-04-19 23:08 | 34.36288 | -97.55916 | 30166 ft | 420 kts | 193° |
| 2026-04-19 23:08 | 34.33322 | -97.56182 | 29025 ft | 433 kts | 192° |
| 2026-04-19 23:08 | 34.30354 | -97.56431 | 28536 ft | 424 kts | 192° |
| 2026-04-19 23:09 | 34.27375 | -97.56692 | 27659 ft | 429 kts | 192° |
| 2026-04-19 23:09 | 34.24422 | -97.56944 | 27129 ft | 426 kts | 192° |
| 2026-04-19 23:09 | 34.21466 | -97.57200 | 26578 ft | 426 kts | 192° |
| 2026-04-19 23:09 | 34.18498 | -97.57459 | 25972 ft | 430 kts | 192° |
| 2026-04-19 23:10 | 34.15508 | -97.57712 | 25386 ft | 432 kts | 191° |
| 2026-04-19 23:10 | 34.12511 | -97.57965 | 24814 ft | 431 kts | 191° |
| 2026-04-19 23:10 | 34.09528 | -97.58215 | 24247 ft | 428 kts | 191° |
| 2026-04-19 23:10 | 34.06565 | -97.58464 | 23640 ft | 425 kts | 190° |
| 2026-04-19 23:11 | 34.03637 | -97.58708 | 23114 ft | 419 kts | 190° |
| 2026-04-19 23:11 | 34.00742 | -97.58952 | 22554 ft | 415 kts | 190° |
| 2026-04-19 23:11 | 33.97873 | -97.59194 | 21993 ft | 411 kts | 190° |